Conway, Arkansas
Current Conditions -  °F | °C
As of 1:58 PM on Friday 21 Nov 2014 (Local Time) from KLRF Reporting Station
Haze Haze  
Wind Chill: 42°   Ceiling: 300
Heat Index: 45°   Visibility: 6mi
Dew Point: 45°   Wind: 7mph
Humidity: 97%   Direction: 60°ENE
Pressure: 30.24"   Gusts: NA
Location:  35.09°N, 92.44°W
Report Text: KLRF 211958Z AUTO 06006KT 6SM BR OVC003 07/07 A3024 RMK AO2 RAE1908DZB1908E1914 SLP244 P0001 T00740070
Loading
Personal Weather Stations






























Interactive Weather Map New forecast layout! Learn more

10-Day Weather Forecast

Advertisements
Track Severe Weather on mobile